createdAt,value
2022-11-27T00:02:22.565Z,5.65
2022-11-27T00:04:49.275Z,5.70
2022-11-27T00:07:15.981Z,5.14
2022-11-27T00:09:42.736Z,5.27
2022-11-27T00:12:09.436Z,5.15
2022-11-27T00:14:36.027Z,5.12
2022-11-27T00:17:02.630Z,4.84
2022-11-27T00:19:29.240Z,5.18
2022-11-27T00:21:55.851Z,4.53
2022-11-27T00:24:22.456Z,4.40
2022-11-27T00:26:49.058Z,4.57
2022-11-27T00:29:15.709Z,4.49
2022-11-27T00:31:42.451Z,4.50
2022-11-27T00:34:10.481Z,5.03
2022-11-27T00:36:38.323Z,4.74
2022-11-27T00:39:08.583Z,5.05
2022-11-27T00:41:35.251Z,5.19
2022-11-27T00:44:01.838Z,4.89
2022-11-27T00:46:31.810Z,4.92
2022-11-27T00:49:00.920Z,5.03
2022-11-27T00:51:28.970Z,5.17
2022-11-27T00:53:56.136Z,5.53
2022-11-27T00:56:26.596Z,6.09
2022-11-27T00:58:53.994Z,5.77
2022-11-27T01:01:24.424Z,5.84
2022-11-27T01:03:51.750Z,5.92
2022-11-27T01:06:19.861Z,5.87
2022-11-27T01:08:46.785Z,5.73
2022-11-27T01:11:22.998Z,5.86
2022-11-27T01:13:49.741Z,5.82
2022-11-27T01:16:19.882Z,5.92
2022-11-27T01:18:48.726Z,6.09
2022-11-27T01:21:19.129Z,5.56
2022-11-27T01:23:47.161Z,4.80
2022-11-27T01:26:15.467Z,5.06
2022-11-27T01:28:42.383Z,4.73
2022-11-27T01:31:18.312Z,5.38
2022-11-27T01:33:46.202Z,5.07
2022-11-27T01:36:17.311Z,5.36
2022-11-27T01:38:44.199Z,4.97
2022-11-27T01:41:18.899Z,5.07
2022-11-27T01:43:46.867Z,4.96
2022-11-27T01:46:33.054Z,5.50
2022-11-27T01:49:21.260Z,4.68
2022-11-27T01:51:55.142Z,5.10
2022-11-27T01:54:27.139Z,5.85
2022-11-27T01:56:59.348Z,6.45
2022-11-27T01:59:26.081Z,6.86
2022-11-27T02:01:52.763Z,7.02
2022-11-27T02:04:19.777Z,7.16
2022-11-27T02:06:46.693Z,6.63
2022-11-27T02:09:14.894Z,6.73
2022-11-27T02:11:51.902Z,5.25
2022-11-27T02:14:18.439Z,5.27
2022-11-27T02:16:55.068Z,6.08
2022-11-27T02:19:50.747Z,6.25
2022-11-27T02:22:59.941Z,5.57
2022-11-27T02:26:01.420Z,6.24
2022-11-27T02:28:46.195Z,6.77
2022-11-27T02:31:20.685Z,6.85
2022-11-27T02:33:54.978Z,5.89
2022-11-27T02:36:29.770Z,5.55
2022-11-27T02:39:16.858Z,6.27
2022-11-27T02:42:15.205Z,5.77
2022-11-27T02:44:50.796Z,6.47
2022-11-27T02:47:19.409Z,5.61
2022-11-27T02:49:47.366Z,5.76
2022-11-27T02:52:18.788Z,4.76
2022-11-27T02:54:51.881Z,4.79
2022-11-27T02:57:22.850Z,4.72
2022-11-27T02:59:52.137Z,4.49
2022-11-27T03:02:26.776Z,4.72
2022-11-27T03:04:59.399Z,4.20
2022-11-27T03:07:37.574Z,4.15
2022-11-27T03:10:16.785Z,4.66
2022-11-27T03:12:43.497Z,4.38
2022-11-27T03:15:10.693Z,5.13
2022-11-27T03:18:02.397Z,5.21
2022-11-27T03:20:41.073Z,5.43
2022-11-27T03:23:07.722Z,5.45
2022-11-27T03:25:34.493Z,4.06
2022-11-27T03:28:09.530Z,4.09
2022-11-27T03:30:36.488Z,4.10
2022-11-27T03:33:03.117Z,3.68
2022-11-27T03:35:30.757Z,3.68
2022-11-27T03:37:57.606Z,3.96
2022-11-27T03:40:32.829Z,4.41
2022-11-27T03:43:13.603Z,4.36
2022-11-27T03:46:07.631Z,4.70
2022-11-27T03:48:51.077Z,3.99
2022-11-27T03:51:29.981Z,4.46
2022-11-27T03:53:59.500Z,4.63
2022-11-27T03:56:47.187Z,3.79
2022-11-27T03:59:28.353Z,4.17
2022-11-27T04:01:54.990Z,3.26
2022-11-27T04:04:21.740Z,3.43
2022-11-27T04:06:48.403Z,3.25
2022-11-27T04:09:15.001Z,3.52
2022-11-27T04:11:41.596Z,3.98
2022-11-27T04:14:28.132Z,4.81
2022-11-27T04:17:12.430Z,5.25
2022-11-27T04:19:39.028Z,5.53
2022-11-27T04:22:05.740Z,5.71
2022-11-27T04:24:32.429Z,5.94
2022-11-27T04:26:59.030Z,5.41
2022-11-27T04:29:25.626Z,6.25
2022-11-27T04:31:52.339Z,6.73
2022-11-27T04:34:19.105Z,6.87
2022-11-27T04:36:45.743Z,6.85
2022-11-27T04:39:12.864Z,7.19
2022-11-27T04:41:39.951Z,7.36
2022-11-27T04:44:06.730Z,7.50
2022-11-27T04:46:33.677Z,7.75
2022-11-27T04:49:00.376Z,7.60
2022-11-27T04:51:26.994Z,7.72
2022-11-27T04:53:56.257Z,7.87
2022-11-27T04:56:23.464Z,7.78
2022-11-27T04:58:50.065Z,8.01
2022-11-27T05:01:16.841Z,8.04
2022-11-27T05:03:43.521Z,8.13
2022-11-27T05:06:10.133Z,8.17
2022-11-27T05:08:36.732Z,8.29
2022-11-27T05:11:06.570Z,8.44
2022-11-27T05:13:34.021Z,8.48
2022-11-27T05:16:01.416Z,8.35
2022-11-27T05:18:28.152Z,8.41
2022-11-27T05:21:06.581Z,8.56
2022-11-27T05:23:34.294Z,8.45
2022-11-27T05:26:01.314Z,8.58
2022-11-27T05:28:27.942Z,8.61
2022-11-27T05:30:54.785Z,8.70
2022-11-27T05:33:21.511Z,8.65
2022-11-27T05:35:48.159Z,8.45
2022-11-27T05:38:14.801Z,8.42
2022-11-27T05:40:41.409Z,8.56
2022-11-27T05:43:08.003Z,8.16
2022-11-27T05:45:34.722Z,8.21
2022-11-27T05:48:01.326Z,8.20
2022-11-27T05:50:29.112Z,8.15
2022-11-27T05:52:55.698Z,8.23
2022-11-27T05:55:22.277Z,7.85
2022-11-27T05:57:48.883Z,7.38
2022-11-27T06:00:16.324Z,7.70
2022-11-27T06:02:43.078Z,7.66
2022-11-27T06:05:09.857Z,7.78
2022-11-27T06:07:36.553Z,7.70
2022-11-27T06:10:03.304Z,7.92
2022-11-27T06:12:32.321Z,7.65
2022-11-27T06:14:58.945Z,7.78
2022-11-27T06:17:25.536Z,7.95
2022-11-27T06:19:52.115Z,8.02
2022-11-27T06:22:18.730Z,8.05
2022-11-27T06:24:45.379Z,8.00
2022-11-27T06:27:12.010Z,8.02
2022-11-27T06:29:38.674Z,7.35
2022-11-27T06:32:06.826Z,7.63
2022-11-27T06:34:33.600Z,7.28
2022-11-27T06:37:00.294Z,7.56
2022-11-27T06:39:27.434Z,7.32
2022-11-27T06:41:54.030Z,7.37
2022-11-27T06:44:20.625Z,7.20
2022-11-27T06:46:47.283Z,7.65
2022-11-27T06:49:13.907Z,7.17
2022-11-27T06:51:40.657Z,7.43
2022-11-27T06:54:07.270Z,7.34
2022-11-27T06:56:33.988Z,7.36
2022-11-27T06:59:01.898Z,7.45
2022-11-27T07:01:30.460Z,7.36
2022-11-27T07:03:58.287Z,7.45
2022-11-27T07:06:27.167Z,7.55
2022-11-27T07:08:55.278Z,7.28
2022-11-27T07:11:25.299Z,7.21
2022-11-27T07:13:55.514Z,7.20
2022-11-27T07:16:22.253Z,6.25
2022-11-27T07:19:00.056Z,6.50
2022-11-27T07:21:27.661Z,6.52
2022-11-27T07:23:56.158Z,7.07
2022-11-27T07:26:28.084Z,7.63
2022-11-27T07:28:55.534Z,7.72
2022-11-27T07:31:27.638Z,7.89
2022-11-27T07:33:59.798Z,8.11
2022-11-27T07:36:31.030Z,8.28
2022-11-27T07:38:57.788Z,8.09
2022-11-27T07:41:27.964Z,8.58
2022-11-27T07:43:57.323Z,8.76
2022-11-27T07:46:24.746Z,8.70
2022-11-27T07:48:52.400Z,8.64
2022-11-27T07:51:21.409Z,8.48
2022-11-27T07:53:49.036Z,8.11
2022-11-27T07:56:15.864Z,7.96
2022-11-27T07:58:42.689Z,8.01
2022-11-27T08:01:11.922Z,8.09
2022-11-27T08:03:38.665Z,7.76
2022-11-27T08:06:14.669Z,7.81
2022-11-27T08:08:41.333Z,8.02
2022-11-27T08:11:18.468Z,7.76
2022-11-27T08:13:45.436Z,6.92
2022-11-27T08:16:12.217Z,7.31
2022-11-27T08:18:38.896Z,7.68
2022-11-27T08:21:05.669Z,7.87
2022-11-27T08:23:32.652Z,8.43
2022-11-27T08:25:59.270Z,8.12
2022-11-27T08:28:25.971Z,8.50
2022-11-27T08:30:58.170Z,8.99
2022-11-27T08:33:26.268Z,8.73
2022-11-27T08:35:52.897Z,8.90
2022-11-27T08:38:20.430Z,8.40
2022-11-27T08:40:54.637Z,8.10
2022-11-27T08:43:21.363Z,7.78
2022-11-27T08:45:48.583Z,8.34
2022-11-27T08:48:15.832Z,8.83
2022-11-27T08:50:42.573Z,8.54
2022-11-27T08:53:09.277Z,8.09
2022-11-27T08:55:35.861Z,7.47
2022-11-27T08:58:02.500Z,7.67
2022-11-27T09:00:29.356Z,8.27
2022-11-27T09:02:56.181Z,7.93
2022-11-27T09:05:22.760Z,8.13
2022-11-27T09:07:50.788Z,8.39
2022-11-27T09:10:17.881Z,8.38
2022-11-27T09:12:44.653Z,8.58
2022-11-27T09:15:12.683Z,8.29
2022-11-27T09:17:39.810Z,8.37
2022-11-27T09:20:07.640Z,8.57
2022-11-27T09:22:35.285Z,8.53
2022-11-27T09:25:02.124Z,8.61
2022-11-27T09:27:28.921Z,9.04
2022-11-27T09:29:55.564Z,8.44
2022-11-27T09:32:23.565Z,7.80
2022-11-27T09:34:53.305Z,7.86
2022-11-27T09:37:19.972Z,8.69
2022-11-27T09:39:46.587Z,8.77
2022-11-27T09:42:52.003Z,9.21
2022-11-27T09:45:19.088Z,9.26
2022-11-27T09:47:53.401Z,9.10
2022-11-27T09:50:29.412Z,9.52
2022-11-27T09:53:35.666Z,9.33
2022-11-27T09:56:10.960Z,9.26
2022-11-27T09:58:43.858Z,9.37
2022-11-27T10:01:14.030Z,9.00
2022-11-27T10:03:43.065Z,9.09
2022-11-27T10:06:18.641Z,8.78
2022-11-27T10:08:53.511Z,9.17
2022-11-27T10:11:33.821Z,9.56
2022-11-27T10:14:00.418Z,9.66
2022-11-27T10:16:44.571Z,9.74
2022-11-27T10:19:35.671Z,9.67
2022-11-27T10:22:42.444Z,9.23
2022-11-27T10:25:45.284Z,8.79
2022-11-27T10:28:37.103Z,9.24
2022-11-27T10:31:21.920Z,9.22
2022-11-27T10:33:55.125Z,9.41
2022-11-27T10:36:37.121Z,9.33
2022-11-27T10:39:13.578Z,9.44
2022-11-27T10:41:53.842Z,9.11
2022-11-27T10:44:34.486Z,8.94
2022-11-27T10:47:10.260Z,9.63
2022-11-27T10:49:40.661Z,9.64
2022-11-27T10:52:13.998Z,10.24
2022-11-27T10:54:43.837Z,10.36
2022-11-27T10:57:47.372Z,9.44
2022-11-27T11:00:24.585Z,9.57
2022-11-27T11:03:06.020Z,9.97
2022-11-27T11:05:50.949Z,9.98
2022-11-27T11:08:21.718Z,10.21
2022-11-27T11:11:05.747Z,9.84
2022-11-27T11:13:33.219Z,10.15
2022-11-27T11:16:05.493Z,10.06
2022-11-27T11:18:41.699Z,10.53
2022-11-27T11:21:27.123Z,10.64
2022-11-27T11:24:03.675Z,10.24
2022-11-27T11:26:45.174Z,10.91
2022-11-27T11:29:28.706Z,10.33
2022-11-27T11:31:58.509Z,10.14
2022-11-27T11:34:30.952Z,10.75
2022-11-27T11:37:19.298Z,9.78
2022-11-27T11:39:53.609Z,9.95
2022-11-27T11:42:29.110Z,10.18
2022-11-27T11:45:05.289Z,10.19
2022-11-27T11:47:32.663Z,10.62
2022-11-27T11:49:59.463Z,10.18
2022-11-27T11:52:34.554Z,9.95
2022-11-27T11:55:18.208Z,10.43
2022-11-27T11:57:56.107Z,9.98
2022-11-27T12:00:37.627Z,10.46
2022-11-27T12:03:33.808Z,10.65
2022-11-27T12:06:24.481Z,10.83
2022-11-27T12:09:08.182Z,10.41
2022-11-27T12:11:37.371Z,9.88
2022-11-27T12:14:18.239Z,10.27
2022-11-27T12:16:50.406Z,10.51
2022-11-27T12:19:35.297Z,10.50
2022-11-27T12:22:16.834Z,10.06
2022-11-27T12:25:18.782Z,10.24
2022-11-27T12:28:19.670Z,10.73
2022-11-27T12:31:06.054Z,11.16
2022-11-27T12:34:12.968Z,10.95
2022-11-27T12:37:13.720Z,11.24
2022-11-27T12:40:24.258Z,11.29
2022-11-27T12:43:13.482Z,10.84
2022-11-27T12:45:53.689Z,11.42
2022-11-27T12:48:31.674Z,11.42
2022-11-27T12:51:15.728Z,11.26
2022-11-27T12:53:50.185Z,11.41
2022-11-27T12:56:40.351Z,11.68
2022-11-27T12:59:27.253Z,11.37
2022-11-27T13:02:12.508Z,11.31
2022-11-27T13:04:52.875Z,9.84
2022-11-27T13:07:55.012Z,9.50
2022-11-27T13:10:33.115Z,10.03
2022-11-27T13:13:12.157Z,10.12
2022-11-27T13:15:42.838Z,9.77
2022-11-27T13:18:39.023Z,9.73
2022-11-27T13:21:22.384Z,10.00
2022-11-27T13:23:50.290Z,10.38
2022-11-27T13:26:31.600Z,10.48
2022-11-27T13:29:15.285Z,10.50
2022-11-27T13:31:45.636Z,10.50
2022-11-27T13:34:22.942Z,10.72
2022-11-27T13:37:03.163Z,9.95
2022-11-27T13:39:42.090Z,10.47
2022-11-27T13:42:11.610Z,10.79
2022-11-27T13:44:44.210Z,10.72
2022-11-27T13:47:16.356Z,10.69
2022-11-27T13:49:43.644Z,10.63
2022-11-27T13:52:14.876Z,10.76
2022-11-27T13:54:56.821Z,11.19
2022-11-27T13:57:25.209Z,10.94
2022-11-27T14:00:13.940Z,11.19
2022-11-27T14:02:44.759Z,11.10
2022-11-27T14:05:14.037Z,11.14
2022-11-27T14:07:44.594Z,11.26
2022-11-27T14:10:27.353Z,10.72
2022-11-27T14:12:56.809Z,10.00
2022-11-27T14:15:28.257Z,9.83
2022-11-27T14:18:14.699Z,10.49
2022-11-27T14:20:56.301Z,10.89
2022-11-27T14:23:35.229Z,11.08
2022-11-27T14:26:15.194Z,11.10
2022-11-27T14:28:46.008Z,11.01
2022-11-27T14:31:32.475Z,11.32
2022-11-27T14:34:14.796Z,11.02
2022-11-27T14:36:44.544Z,9.90
2022-11-27T14:39:22.340Z,10.45
2022-11-27T14:42:04.515Z,10.69
2022-11-27T14:44:32.347Z,11.04
2022-11-27T14:47:07.150Z,11.19
2022-11-27T14:49:34.302Z,11.02
2022-11-27T14:52:06.719Z,11.18
2022-11-27T14:54:39.170Z,10.24
2022-11-27T14:57:11.937Z,10.57
2022-11-27T14:59:38.669Z,11.03
2022-11-27T15:02:14.220Z,10.89
2022-11-27T15:04:45.877Z,10.81
2022-11-27T15:07:26.192Z,11.10
2022-11-27T15:09:57.312Z,11.00
2022-11-27T15:12:29.579Z,10.44
2022-11-27T15:15:14.365Z,10.82
2022-11-27T15:17:48.241Z,10.65
2022-11-27T15:20:21.712Z,10.82
2022-11-27T15:22:55.321Z,10.93
2022-11-27T15:25:35.405Z,10.36
2022-11-27T15:28:02.409Z,9.87
2022-11-27T15:30:29.341Z,10.29
2022-11-27T15:32:55.984Z,10.31
2022-11-27T15:35:31.145Z,9.72
2022-11-27T15:37:58.278Z,9.73
2022-11-27T15:40:32.323Z,10.16
2022-11-27T15:42:59.230Z,10.30
2022-11-27T15:45:32.922Z,9.95
2022-11-27T15:48:01.577Z,10.01
2022-11-27T15:50:31.920Z,10.25
2022-11-27T15:52:58.553Z,10.40
2022-11-27T15:55:25.173Z,10.45
2022-11-27T15:57:51.917Z,10.25
2022-11-27T16:00:19.292Z,10.18
2022-11-27T16:02:45.968Z,10.35
2022-11-27T16:05:12.628Z,10.40
2022-11-27T16:07:39.331Z,10.52
2022-11-27T16:10:06.536Z,9.99
2022-11-27T16:12:33.399Z,10.01
2022-11-27T16:15:00.006Z,9.26
2022-11-27T16:17:26.683Z,9.21
2022-11-27T16:19:53.273Z,9.56
2022-11-27T16:22:19.898Z,9.94
2022-11-27T16:24:46.514Z,9.91
2022-11-27T16:27:13.193Z,9.90
2022-11-27T16:29:39.866Z,10.21
2022-11-27T16:32:06.545Z,9.98
2022-11-27T16:34:33.251Z,10.05
2022-11-27T16:36:59.849Z,10.23
2022-11-27T16:39:26.672Z,10.26
2022-11-27T16:41:53.285Z,10.31
2022-11-27T16:44:19.945Z,10.18
2022-11-27T16:46:46.539Z,10.07
2022-11-27T16:49:13.479Z,9.74
2022-11-27T16:51:40.699Z,9.95
2022-11-27T16:54:10.375Z,9.79
2022-11-27T16:56:37.845Z,9.70
2022-11-27T16:59:09.645Z,9.40
2022-11-27T17:01:37.414Z,9.36
2022-11-27T17:04:05.765Z,9.36
2022-11-27T17:06:33.550Z,9.50
2022-11-27T17:09:02.597Z,9.59
2022-11-27T17:11:33.056Z,9.53
2022-11-27T17:14:02.412Z,9.60
2022-11-27T17:16:29.160Z,9.31
2022-11-27T17:18:55.862Z,9.09
2022-11-27T17:21:31.254Z,9.38
2022-11-27T17:24:01.202Z,9.24
2022-11-27T17:26:30.448Z,9.43
2022-11-27T17:28:57.454Z,9.51
2022-11-27T17:31:29.426Z,9.47
2022-11-27T17:33:56.809Z,9.22
2022-11-27T17:36:25.155Z,9.40
2022-11-27T17:38:52.148Z,9.44
2022-11-27T17:41:19.634Z,9.61
2022-11-27T17:43:47.509Z,9.67
2022-11-27T17:46:23.425Z,9.68
2022-11-27T17:48:51.526Z,9.67
2022-11-27T17:51:19.151Z,8.83
2022-11-27T17:53:45.986Z,8.96
2022-11-27T17:56:15.515Z,9.11
2022-11-27T17:58:42.393Z,9.18
2022-11-27T18:01:18.707Z,8.73
2022-11-27T18:03:45.458Z,8.94
2022-11-27T18:06:13.764Z,8.38
2022-11-27T18:08:40.730Z,8.68
2022-11-27T18:11:13.294Z,8.60
2022-11-27T18:13:40.051Z,8.95
2022-11-27T18:16:16.248Z,9.37
2022-11-27T18:18:43.357Z,9.56
2022-11-27T18:21:18.092Z,9.47
2022-11-27T18:24:20.724Z,9.21
2022-11-27T18:27:00.490Z,9.17
2022-11-27T18:29:19.865Z,9.12
2022-11-27T18:31:46.549Z,8.90
2022-11-27T18:34:13.180Z,8.82
2022-11-27T18:36:39.756Z,9.12
2022-11-27T18:39:06.345Z,9.11
2022-11-27T18:41:32.941Z,8.60
2022-11-27T18:43:59.544Z,9.01
2022-11-27T18:46:26.448Z,8.90
2022-11-27T18:48:53.163Z,8.94
2022-11-27T18:51:22.781Z,8.72
2022-11-27T18:53:51.136Z,8.99
2022-11-27T18:56:21.281Z,8.81
2022-11-27T18:58:48.948Z,8.80
2022-11-27T19:01:18.527Z,9.09
2022-11-27T19:03:45.607Z,9.17
2022-11-27T19:06:14.511Z,9.39
2022-11-27T19:08:41.401Z,9.46
2022-11-27T19:11:15.083Z,9.38
2022-11-27T19:13:43.039Z,9.36
2022-11-27T19:16:18.561Z,9.57
2022-11-27T19:18:45.432Z,9.33
2022-11-27T19:21:18.256Z,9.31
2022-11-27T19:23:45.643Z,9.55
2022-11-27T19:26:18.307Z,9.55
2022-11-27T19:28:47.711Z,9.45
2022-11-27T19:31:14.587Z,9.65
2022-11-27T19:33:41.252Z,9.77
2022-11-27T19:36:14.422Z,9.45
2022-11-27T19:38:42.542Z,8.74
2022-11-27T19:41:11.989Z,9.13
2022-11-27T19:43:39.029Z,9.15
2022-11-27T19:46:17.071Z,9.49
2022-11-27T19:48:44.250Z,9.32
2022-11-27T19:51:11.408Z,9.49
2022-11-27T19:53:38.338Z,9.43
2022-11-27T19:56:08.805Z,9.68
2022-11-27T19:58:38.022Z,9.09
2022-11-27T20:01:10.308Z,9.01
2022-11-27T20:03:37.705Z,9.50
2022-11-27T20:06:07.593Z,9.28
2022-11-27T20:08:34.833Z,9.22
2022-11-27T20:11:04.222Z,9.44
2022-11-27T20:13:30.983Z,9.71
2022-11-27T20:15:57.930Z,9.68
2022-11-27T20:18:24.650Z,9.57
2022-11-27T20:20:51.291Z,9.73
2022-11-27T20:23:18.289Z,9.39
2022-11-27T20:25:44.904Z,9.22
2022-11-27T20:28:11.536Z,9.17
2022-11-27T20:30:38.386Z,9.24
2022-11-27T20:33:07.736Z,9.35
2022-11-27T20:35:34.640Z,8.97
2022-11-27T20:38:01.233Z,9.42
2022-11-27T20:40:27.860Z,9.40
2022-11-27T20:42:54.470Z,8.96
2022-11-27T20:45:21.313Z,8.76
2022-11-27T20:47:47.917Z,9.03
2022-11-27T20:50:14.584Z,9.26
2022-11-27T20:52:41.227Z,9.47
2022-11-27T20:55:08.112Z,9.51
2022-11-27T20:57:34.740Z,9.67
2022-11-27T21:00:01.415Z,9.83
2022-11-27T21:02:28.183Z,9.86
2022-11-27T21:04:54.842Z,9.88
2022-11-27T21:07:21.517Z,9.92
2022-11-27T21:09:48.191Z,9.93
2022-11-27T21:12:14.809Z,9.85
2022-11-27T21:14:44.066Z,9.93
2022-11-27T21:17:10.746Z,10.06
2022-11-27T21:19:37.433Z,10.11
2022-11-27T21:22:04.044Z,10.12
2022-11-27T21:24:30.659Z,10.17
2022-11-27T21:26:57.343Z,10.21
2022-11-27T21:29:24.139Z,10.22
2022-11-27T21:31:51.350Z,10.21
2022-11-27T21:34:18.040Z,9.86
2022-11-27T21:36:47.619Z,10.14
2022-11-27T21:39:15.498Z,9.91
2022-11-27T21:41:42.130Z,10.06
2022-11-27T21:44:09.726Z,9.81
2022-11-27T21:46:36.535Z,9.70
2022-11-27T21:49:03.408Z,9.54
2022-11-27T21:51:30.253Z,9.85
2022-11-27T21:53:58.826Z,9.42
2022-11-27T21:56:28.037Z,9.52
2022-11-27T21:58:54.725Z,9.53
2022-11-27T22:01:24.670Z,9.56
2022-11-27T22:03:51.966Z,9.59
2022-11-27T22:06:18.719Z,9.55
2022-11-27T22:08:48.205Z,9.64
2022-11-27T22:11:19.501Z,9.75
2022-11-27T22:13:46.133Z,9.77
2022-11-27T22:16:19.247Z,9.63
2022-11-27T22:18:46.774Z,9.47
2022-11-27T22:21:14.238Z,8.89
2022-11-27T22:23:41.425Z,8.66
2022-11-27T22:26:12.388Z,9.10
2022-11-27T22:28:39.405Z,8.86
2022-11-27T22:31:12.484Z,9.29
2022-11-27T22:33:40.122Z,9.57
2022-11-27T22:36:27.184Z,9.63
2022-11-27T22:38:55.308Z,9.75
2022-11-27T22:41:24.722Z,9.82
2022-11-27T22:43:52.255Z,9.74
2022-11-27T22:46:28.539Z,9.92
2022-11-27T22:48:56.942Z,9.97
2022-11-27T22:51:25.504Z,10.10
2022-11-27T22:53:52.800Z,10.10
2022-11-27T22:56:19.486Z,10.10
2022-11-27T22:58:46.128Z,10.19
2022-11-27T23:01:25.341Z,10.10
2022-11-27T23:03:53.315Z,10.00
2022-11-27T23:06:22.517Z,9.88
2022-11-27T23:08:50.501Z,8.99
2022-11-27T23:11:23.632Z,9.49
2022-11-27T23:13:52.961Z,9.49
2022-11-27T23:16:20.105Z,9.76
2022-11-27T23:18:47.929Z,9.28
2022-11-27T23:21:20.547Z,9.51
2022-11-27T23:23:47.313Z,9.41
2022-11-27T23:26:18.381Z,8.94
2022-11-27T23:28:46.839Z,9.25
2022-11-27T23:31:31.648Z,9.39
2022-11-27T23:34:01.094Z,9.44
2022-11-27T23:36:29.217Z,9.37
2022-11-27T23:38:56.336Z,9.21
2022-11-27T23:41:25.192Z,9.39
2022-11-27T23:43:53.421Z,8.90
2022-11-27T23:46:22.728Z,8.29
2022-11-27T23:48:49.795Z,8.76
2022-11-27T23:51:19.986Z,8.91
2022-11-27T23:53:48.021Z,9.11
2022-11-27T23:56:18.133Z,9.11
2022-11-27T23:58:47.357Z,9.22
